createdAt,value
2018-12-23T00:00:32.244Z,2.87
2018-12-23T00:03:00.350Z,3.10
2018-12-23T00:05:28.889Z,2.80
2018-12-23T00:07:56.571Z,3.60
2018-12-23T00:10:24.963Z,2.67
2018-12-23T00:12:52.669Z,3.45
2018-12-23T00:15:21.419Z,2.85
2018-12-23T00:17:49.689Z,3.28
2018-12-23T00:20:18.237Z,3.87
2018-12-23T00:22:46.321Z,3.80
2018-12-23T00:25:14.714Z,6.25
2018-12-23T00:27:42.461Z,5.72
2018-12-23T00:30:10.278Z,6.78
2018-12-23T00:32:38.186Z,7.30
2018-12-23T00:35:06.164Z,6.97
2018-12-23T00:37:34.257Z,7.55
2018-12-23T00:40:02.538Z,5.55
2018-12-23T00:42:30.924Z,4.65
2018-12-23T00:44:58.974Z,5.60
2018-12-23T00:47:27.452Z,4.65
2018-12-23T00:49:55.433Z,4.30
2018-12-23T00:52:23.199Z,3.72
2018-12-23T00:54:51.677Z,3.45
2018-12-23T00:57:19.757Z,4.53
2018-12-23T00:59:47.494Z,3.90
2018-12-23T01:02:15.677Z,4.47
2018-12-23T01:04:43.806Z,4.97
2018-12-23T01:07:11.924Z,4.20
2018-12-23T01:09:39.787Z,4.28
2018-12-23T01:12:07.853Z,3.60
2018-12-23T01:14:35.566Z,3.65
2018-12-23T01:17:03.790Z,4.22
2018-12-23T01:19:31.869Z,3.90
2018-12-23T01:21:59.739Z,4.35
2018-12-23T01:24:28.308Z,4.18
2018-12-23T01:26:56.703Z,3.80
2018-12-23T01:29:24.680Z,3.75
2018-12-23T01:31:53.274Z,4.50
2018-12-23T01:34:21.875Z,4.65
2018-12-23T01:36:49.695Z,4.25
2018-12-23T01:39:17.782Z,4.50
2018-12-23T01:41:45.824Z,4.35
2018-12-23T01:44:14.123Z,4.35
2018-12-23T01:46:42.231Z,5.00
2018-12-23T01:49:10.391Z,5.43
2018-12-23T01:51:38.673Z,5.30
2018-12-23T01:54:07.494Z,5.53
2018-12-23T01:56:35.633Z,6.10
2018-12-23T01:59:03.668Z,6.10
2018-12-23T02:01:31.780Z,7.05
2018-12-23T02:04:00.042Z,6.65
2018-12-23T02:06:27.698Z,7.43
2018-12-23T02:08:55.549Z,7.60
2018-12-23T02:11:23.544Z,7.18
2018-12-23T02:13:51.596Z,7.70
2018-12-23T02:16:19.603Z,9.45
2018-12-23T02:18:47.727Z,7.47
2018-12-23T02:21:15.808Z,7.82
2018-12-23T02:23:43.381Z,7.55
2018-12-23T02:26:11.209Z,7.35
2018-12-23T02:28:39.099Z,8.30
2018-12-23T02:31:06.919Z,7.12
2018-12-23T02:33:34.439Z,7.37
2018-12-23T02:36:02.584Z,7.47
2018-12-23T02:38:30.671Z,7.25
2018-12-23T02:40:58.660Z,7.70
2018-12-23T02:43:26.690Z,8.88
2018-12-23T02:45:54.803Z,7.93
2018-12-23T02:48:22.857Z,8.23
2018-12-23T02:50:50.930Z,8.80
2018-12-23T02:53:19.290Z,8.80
2018-12-23T02:55:47.522Z,9.05
2018-12-23T02:58:16.950Z,8.60
2018-12-23T03:00:44.879Z,10.57
2018-12-23T03:03:13.078Z,10.15
2018-12-23T03:05:41.291Z,9.18
2018-12-23T03:08:09.775Z,10.40
2018-12-23T03:10:37.801Z,10.38
2018-12-23T03:13:05.897Z,9.95
2018-12-23T03:15:33.969Z,10.05
2018-12-23T03:18:02.154Z,11.15
2018-12-23T03:20:30.240Z,11.85
2018-12-23T03:22:58.599Z,12.18
2018-12-23T03:25:25.801Z,9.75
2018-12-23T03:27:54.347Z,11.02
2018-12-23T03:30:22.398Z,10.00
2018-12-23T03:32:50.813Z,12.25
2018-12-23T03:35:18.660Z,11.07
2018-12-23T03:37:46.755Z,11.75
2018-12-23T03:40:14.999Z,11.15
2018-12-23T03:42:43.707Z,12.43
2018-12-23T03:45:11.703Z,11.45
2018-12-23T03:47:40.079Z,10.55
2018-12-23T03:50:07.720Z,10.45
2018-12-23T03:52:36.402Z,10.88
2018-12-23T03:55:04.996Z,10.43
2018-12-23T03:57:33.053Z,10.85
2018-12-23T04:00:01.448Z,9.95
2018-12-23T04:02:30.750Z,11.85
2018-12-23T04:04:58.528Z,11.12
2018-12-23T04:07:27.122Z,10.38
2018-12-23T04:09:55.345Z,11.12
2018-12-23T04:12:23.423Z,11.48
2018-12-23T04:14:51.456Z,11.75
2018-12-23T04:17:20.062Z,12.65
2018-12-23T04:19:49.157Z,11.70
2018-12-23T04:22:17.149Z,12.77
2018-12-23T04:24:44.898Z,11.82
2018-12-23T04:27:13.116Z,14.18
2018-12-23T04:29:41.262Z,11.90
2018-12-23T04:32:09.332Z,13.25
2018-12-23T04:34:36.773Z,13.50
2018-12-23T04:37:04.772Z,13.90
2018-12-23T04:39:32.515Z,13.75
2018-12-23T04:42:00.368Z,15.63
2018-12-23T04:44:28.160Z,13.75
2018-12-23T04:46:56.158Z,16.37
2018-12-23T04:49:24.195Z,14.70
2018-12-23T04:51:52.371Z,15.38
2018-12-23T04:54:20.995Z,15.88
2018-12-23T04:56:48.839Z,15.75
2018-12-23T04:59:17.693Z,17.90
2018-12-23T05:01:45.862Z,16.05
2018-12-23T05:04:13.820Z,15.30
2018-12-23T05:06:43.387Z,14.68
2018-12-23T05:09:09.885Z,15.88
2018-12-23T05:11:37.943Z,15.65
2018-12-23T05:14:06.586Z,15.07
2018-12-23T05:16:34.694Z,16.80
2018-12-23T05:19:02.465Z,15.35
2018-12-23T05:21:30.599Z,16.98
2018-12-23T05:23:58.696Z,15.23
2018-12-23T05:26:26.788Z,14.70
2018-12-23T05:28:55.268Z,15.23
2018-12-23T05:31:23.362Z,15.20
2018-12-23T05:33:51.896Z,16.05
2018-12-23T05:36:20.058Z,15.57
2018-12-23T05:38:48.057Z,15.55
2018-12-23T05:41:16.143Z,17.08
2018-12-23T05:43:44.003Z,18.95
2018-12-23T05:46:11.976Z,14.52
2018-12-23T05:48:40.544Z,17.30
2018-12-23T05:51:09.211Z,16.98
2018-12-23T05:53:39.681Z,17.15
2018-12-23T05:56:07.824Z,17.25
2018-12-23T05:58:36.504Z,16.85
2018-12-23T06:01:04.596Z,16.90
2018-12-23T06:03:32.585Z,14.75
2018-12-23T06:06:00.670Z,16.40
2018-12-23T06:08:28.845Z,15.35
2018-12-23T06:10:56.887Z,16.87
2018-12-23T06:13:25.187Z,13.62
2018-12-23T06:15:53.229Z,16.60
2018-12-23T06:18:21.396Z,16.33
2018-12-23T06:20:49.789Z,16.05
2018-12-23T06:23:17.854Z,14.85
2018-12-23T06:25:45.734Z,15.75
2018-12-23T06:28:13.842Z,15.13
2018-12-23T06:30:42.264Z,15.57
2018-12-23T06:33:10.273Z,16.37
2018-12-23T06:35:38.620Z,15.50
2018-12-23T06:38:06.919Z,15.77
2018-12-23T06:40:35.075Z,14.98
2018-12-23T06:43:03.277Z,16.98
2018-12-23T06:45:31.849Z,15.52
2018-12-23T06:47:59.880Z,15.18
2018-12-23T06:50:28.004Z,14.50
2018-12-23T06:52:56.619Z,14.52
2018-12-23T06:55:24.541Z,15.77
2018-12-23T06:57:52.729Z,13.93
2018-12-23T07:00:21.075Z,14.15
2018-12-23T07:02:49.141Z,16.45
2018-12-23T07:05:17.762Z,13.68
2018-12-23T07:07:45.483Z,14.98
2018-12-23T07:10:13.546Z,14.07
2018-12-23T07:12:41.936Z,16.73
2018-12-23T07:15:10.032Z,16.65
2018-12-23T07:17:37.740Z,16.65
2018-12-23T07:20:05.893Z,16.50
2018-12-23T07:22:34.056Z,15.60
2018-12-23T07:25:02.211Z,13.00
2018-12-23T07:27:30.605Z,13.05
2018-12-23T07:29:58.466Z,15.57
2018-12-23T07:32:26.240Z,15.25
2018-12-23T07:34:54.418Z,15.18
2018-12-23T07:37:27.387Z,15.18
2018-12-23T07:39:50.658Z,13.68
2018-12-23T07:42:19.243Z,14.87
2018-12-23T07:44:47.499Z,14.65
2018-12-23T07:47:15.563Z,19.77
2018-12-23T07:49:43.643Z,14.32
2018-12-23T07:52:11.815Z,15.32
2018-12-23T07:54:40.267Z,15.20
2018-12-23T07:57:08.473Z,16.05
2018-12-23T07:59:35.915Z,15.02
2018-12-23T08:02:04.006Z,16.58
2018-12-23T08:04:32.091Z,15.18
2018-12-23T08:07:00.058Z,14.52
2018-12-23T08:09:28.209Z,16.98
2018-12-23T08:11:56.331Z,15.85
2018-12-23T08:14:24.558Z,15.05
2018-12-23T08:16:52.641Z,16.27
2018-12-23T08:19:20.585Z,15.98
2018-12-23T08:21:48.278Z,15.50
2018-12-23T08:24:16.447Z,15.88
2018-12-23T08:26:44.259Z,15.38
2018-12-23T08:29:12.640Z,18.42
2018-12-23T08:31:40.431Z,16.65
2018-12-23T08:34:08.306Z,15.40
2018-12-23T08:36:36.277Z,16.23
2018-12-23T08:39:04.957Z,18.05
2018-12-23T08:41:33.164Z,15.90
2018-12-23T08:44:00.946Z,17.83
2018-12-23T08:46:28.492Z,17.33
2018-12-23T08:48:56.639Z,17.60
2018-12-23T08:51:24.705Z,17.35
2018-12-23T08:53:52.468Z,17.70
2018-12-23T08:56:20.549Z,19.00
2018-12-23T08:58:47.985Z,19.30
2018-12-23T09:01:16.002Z,18.33
2018-12-23T09:03:44.483Z,19.65
2018-12-23T09:06:12.425Z,21.62
2018-12-23T09:08:40.484Z,19.83
2018-12-23T09:11:09.245Z,26.23
2018-12-23T09:13:37.319Z,21.23
2018-12-23T09:16:05.513Z,20.88
2018-12-23T09:18:34.508Z,21.08
2018-12-23T09:21:02.527Z,20.90
2018-12-23T09:23:30.278Z,20.70
2018-12-23T09:25:58.453Z,22.27
2018-12-23T09:28:26.476Z,22.40
2018-12-23T09:30:54.344Z,22.15
2018-12-23T09:33:22.218Z,25.25
2018-12-23T09:35:50.062Z,24.20
2018-12-23T09:38:18.152Z,23.58
2018-12-23T09:40:46.523Z,23.10
2018-12-23T09:43:15.157Z,23.23
2018-12-23T09:45:42.975Z,25.62
2018-12-23T09:48:11.264Z,23.12
2018-12-23T09:50:39.393Z,23.90
2018-12-23T09:53:07.485Z,24.17
2018-12-23T09:55:35.487Z,23.92
2018-12-23T09:58:03.757Z,26.20
2018-12-23T10:00:31.585Z,23.58
2018-12-23T10:02:59.819Z,24.08
2018-12-23T10:05:27.261Z,26.62
2018-12-23T10:07:55.354Z,24.48
2018-12-23T10:10:28.399Z,25.50
2018-12-23T10:12:51.372Z,28.67
2018-12-23T10:15:20.021Z,26.70
2018-12-23T10:17:48.061Z,26.62
2018-12-23T10:20:15.626Z,26.87
2018-12-23T10:22:43.633Z,26.55
2018-12-23T10:25:11.671Z,29.17
2018-12-23T10:27:39.665Z,26.73
2018-12-23T10:30:07.362Z,28.23
2018-12-23T10:32:35.426Z,26.10
2018-12-23T10:35:02.886Z,24.48
2018-12-23T10:37:31.005Z,25.45
2018-12-23T10:39:58.980Z,26.10
2018-12-23T10:42:27.028Z,27.37
2018-12-23T10:44:55.336Z,26.05
2018-12-23T10:47:23.798Z,24.20
2018-12-23T10:49:51.507Z,25.62
2018-12-23T10:52:19.408Z,24.80
2018-12-23T10:54:47.934Z,25.33
2018-12-23T10:57:15.905Z,25.05
2018-12-23T10:59:44.112Z,27.13
2018-12-23T11:02:13.742Z,27.00
2018-12-23T11:04:40.869Z,28.67
2018-12-23T11:07:08.739Z,25.58
2018-12-23T11:09:36.487Z,27.67
2018-12-23T11:12:04.741Z,23.48
2018-12-23T11:14:32.735Z,23.40
2018-12-23T11:17:01.136Z,23.92
2018-12-23T11:19:29.196Z,23.58
2018-12-23T11:21:57.157Z,24.83
2018-12-23T11:24:24.905Z,25.05
2018-12-23T11:26:53.914Z,25.25
2018-12-23T11:29:20.766Z,22.50
2018-12-23T11:31:48.789Z,22.30
2018-12-23T11:34:16.804Z,22.80
2018-12-23T11:36:44.588Z,22.33
2018-12-23T11:39:12.736Z,21.05
2018-12-23T11:41:40.720Z,19.12
2018-12-23T11:44:08.461Z,18.67
2018-12-23T11:46:36.617Z,19.05
2018-12-23T11:49:04.624Z,19.25
2018-12-23T11:51:34.211Z,17.35
2018-12-23T11:54:02.504Z,18.40
2018-12-23T11:56:30.735Z,15.85
2018-12-23T11:58:58.627Z,14.15
2018-12-23T12:01:26.727Z,13.62
2018-12-23T12:03:54.576Z,14.18
2018-12-23T12:06:22.579Z,13.93
2018-12-23T12:08:50.732Z,13.50
2018-12-23T12:11:18.890Z,15.20
2018-12-23T12:13:46.687Z,15.02
2018-12-23T12:16:14.666Z,18.02
2018-12-23T12:18:42.393Z,13.70
2018-12-23T12:21:10.454Z,13.25
2018-12-23T12:23:38.456Z,13.10
2018-12-23T12:26:06.427Z,11.77
2018-12-23T12:28:34.162Z,13.85
2018-12-23T12:31:02.166Z,13.13
2018-12-23T12:33:30.100Z,12.77
2018-12-23T12:35:57.853Z,13.85
2018-12-23T12:38:25.957Z,11.77
2018-12-23T12:40:53.980Z,11.48
2018-12-23T12:43:21.698Z,12.73
2018-12-23T12:45:49.959Z,12.95
2018-12-23T12:48:18.018Z,10.00
2018-12-23T12:50:46.206Z,11.38
2018-12-23T12:53:14.369Z,12.02
2018-12-23T12:55:42.660Z,11.35
2018-12-23T12:58:11.269Z,10.52
2018-12-23T13:00:39.536Z,10.77
2018-12-23T13:03:07.608Z,10.60
2018-12-23T13:05:35.568Z,9.85
2018-12-23T13:08:03.741Z,9.63
2018-12-23T13:10:31.743Z,9.35
2018-12-23T13:12:59.864Z,9.60
2018-12-23T13:15:27.741Z,8.90
2018-12-23T13:17:55.743Z,8.00
2018-12-23T13:20:23.464Z,7.53
2018-12-23T13:22:51.546Z,6.80
2018-12-23T13:25:19.586Z,7.03
2018-12-23T13:27:47.288Z,6.53
2018-12-23T13:30:15.515Z,6.47
2018-12-23T13:32:43.500Z,5.85
2018-12-23T13:35:11.669Z,5.20
2018-12-23T13:37:39.399Z,5.80
2018-12-23T13:40:11.823Z,6.07
2018-12-23T13:42:45.506Z,5.80
2018-12-23T13:45:38.687Z,6.05
2018-12-23T13:48:35.211Z,6.93
2018-12-23T13:51:22.426Z,6.95
2018-12-23T13:54:08.221Z,8.40
2018-12-23T13:56:58.402Z,8.43
2018-12-23T13:59:49.008Z,7.82
2018-12-23T14:02:51.502Z,7.25
2018-12-23T14:05:37.481Z,7.53
2018-12-23T14:08:13.769Z,6.95
2018-12-23T14:10:49.432Z,8.38
2018-12-23T14:13:17.455Z,8.25
2018-12-23T14:15:45.525Z,7.90
2018-12-23T14:18:13.806Z,9.23
2018-12-23T14:20:41.862Z,9.18
2018-12-23T14:23:09.337Z,8.93
2018-12-23T14:25:37.521Z,9.50
2018-12-23T14:28:05.693Z,9.68
2018-12-23T14:30:33.529Z,10.00
2018-12-23T14:33:01.619Z,10.38
2018-12-23T14:35:29.690Z,9.68
2018-12-23T14:37:57.641Z,10.18
2018-12-23T14:40:26.277Z,11.25
2018-12-23T14:42:54.449Z,10.73
2018-12-23T14:45:23.232Z,11.32
2018-12-23T14:47:51.086Z,10.57
2018-12-23T14:50:19.071Z,10.32
2018-12-23T14:52:47.516Z,10.60
2018-12-23T14:55:14.687Z,11.35
2018-12-23T14:57:42.743Z,10.40
2018-12-23T15:00:11.038Z,11.50
2018-12-23T15:02:39.413Z,11.40
2018-12-23T15:05:07.472Z,10.82
2018-12-23T15:07:35.658Z,11.07
2018-12-23T15:10:03.428Z,12.73
2018-12-23T15:12:31.613Z,12.40
2018-12-23T15:14:59.614Z,13.35
2018-12-23T15:17:27.754Z,12.68
2018-12-23T15:19:55.525Z,11.65
2018-12-23T15:22:23.731Z,12.27
2018-12-23T15:24:51.755Z,11.93
2018-12-23T15:27:19.490Z,11.20
2018-12-23T15:29:47.454Z,11.85
2018-12-23T15:32:15.461Z,14.07
2018-12-23T15:34:43.192Z,12.23
2018-12-23T15:37:11.160Z,13.32
2018-12-23T15:39:42.744Z,12.85
2018-12-23T15:42:07.730Z,13.57
2018-12-23T15:44:35.792Z,19.48
2018-12-23T15:47:03.796Z,15.10
2018-12-23T15:49:31.808Z,13.65
2018-12-23T15:51:59.520Z,14.25
2018-12-23T15:54:27.985Z,13.13
2018-12-23T15:56:56.004Z,12.65
2018-12-23T15:59:24.001Z,13.30
2018-12-23T16:01:52.042Z,13.55
2018-12-23T16:04:20.555Z,13.13
2018-12-23T16:06:48.587Z,19.20
2018-12-23T16:09:16.462Z,12.68
2018-12-23T16:11:44.159Z,14.05
2018-12-23T16:14:11.874Z,12.45
2018-12-23T16:16:39.459Z,13.40
2018-12-23T16:19:08.057Z,13.93
2018-12-23T16:21:36.166Z,15.43
2018-12-23T16:24:04.465Z,15.95
2018-12-23T16:26:32.444Z,15.63
2018-12-23T16:29:00.440Z,14.60
2018-12-23T16:31:28.485Z,15.50
2018-12-23T16:33:56.508Z,13.90
2018-12-23T16:36:24.604Z,13.30
2018-12-23T16:38:53.186Z,14.57
2018-12-23T16:41:21.230Z,15.07
2018-12-23T16:43:48.964Z,13.68
2018-12-23T16:46:17.021Z,13.60
2018-12-23T16:48:45.158Z,15.52
2018-12-23T16:51:13.124Z,13.10
2018-12-23T16:53:41.197Z,14.90
2018-12-23T16:56:08.936Z,15.55
2018-12-23T16:58:36.401Z,14.57
2018-12-23T17:01:04.472Z,13.95
2018-12-23T17:03:32.217Z,14.23
2018-12-23T17:05:59.913Z,13.45
2018-12-23T17:08:27.456Z,15.40
2018-12-23T17:10:55.719Z,13.00
2018-12-23T17:13:23.475Z,11.60
2018-12-23T17:15:51.550Z,11.68
2018-12-23T17:18:19.549Z,11.68
2018-12-23T17:20:47.436Z,10.95
2018-12-23T17:23:15.491Z,10.43
2018-12-23T17:25:43.452Z,8.25
2018-12-23T17:28:11.469Z,4.87
2018-12-23T17:30:39.465Z,6.95
2018-12-23T17:33:07.439Z,6.12
2018-12-23T17:35:35.419Z,5.20
2018-12-23T17:38:03.406Z,6.50
2018-12-23T17:40:31.489Z,5.12
2018-12-23T17:42:59.436Z,9.23
2018-12-23T17:45:27.745Z,8.38
2018-12-23T17:47:55.744Z,7.80
2018-12-23T17:50:23.731Z,6.20
2018-12-23T17:52:51.862Z,4.05
2018-12-23T17:55:20.379Z,4.57
2018-12-23T17:57:48.186Z,3.33
2018-12-23T18:00:16.199Z,6.22
2018-12-23T18:02:44.199Z,5.90
2018-12-23T18:05:12.211Z,5.85
2018-12-23T18:07:40.268Z,3.15
2018-12-23T18:10:08.001Z,4.45
2018-12-23T18:12:36.103Z,7.82
2018-12-23T18:15:04.698Z,5.93
2018-12-23T18:17:32.748Z,3.45
2018-12-23T18:20:00.726Z,3.35
2018-12-23T18:22:28.762Z,5.12
2018-12-23T18:24:56.785Z,5.90
2018-12-23T18:27:24.782Z,3.28
2018-12-23T18:29:52.961Z,6.25
2018-12-23T18:32:20.713Z,4.28
2018-12-23T18:34:49.242Z,3.60
2018-12-23T18:37:17.288Z,3.12
2018-12-23T18:39:45.399Z,2.97
2018-12-23T18:42:13.855Z,4.60
2018-12-23T18:44:42.240Z,3.35
2018-12-23T18:47:10.220Z,2.05
2018-12-23T18:49:38.196Z,2.87
2018-12-23T18:52:06.731Z,2.12
2018-12-23T18:54:34.728Z,1.85
2018-12-23T18:57:04.760Z,1.98
2018-12-23T18:59:34.650Z,2.78
2018-12-23T19:02:05.198Z,1.87
2018-12-23T19:04:33.373Z,1.98
2018-12-23T19:07:01.392Z,2.40
2018-12-23T19:09:39.206Z,1.95
2018-12-23T19:12:25.955Z,2.28
2018-12-23T19:15:03.090Z,2.90
2018-12-23T19:17:49.145Z,2.25
2018-12-23T19:20:30.465Z,1.45
2018-12-23T19:23:18.626Z,2.22
2018-12-23T19:26:08.821Z,4.00
2018-12-23T19:28:56.053Z,2.42
2018-12-23T19:32:01.523Z,2.30
2018-12-23T19:34:47.416Z,1.65
2018-12-23T19:37:21.529Z,3.50
2018-12-23T19:40:07.602Z,3.12
2018-12-23T19:43:10.058Z,2.15
2018-12-23T19:45:50.948Z,2.25
2018-12-23T19:48:27.417Z,3.40
2018-12-23T19:51:13.458Z,2.95
2018-12-23T19:54:12.739Z,3.58
2018-12-23T19:56:58.936Z,3.58
2018-12-23T19:59:45.521Z,2.95
2018-12-23T20:02:35.699Z,3.92
2018-12-23T20:05:37.908Z,5.20
2018-12-23T20:08:25.117Z,4.37
2018-12-23T20:11:15.018Z,3.85
2018-12-23T20:14:00.159Z,5.00
2018-12-23T20:16:34.934Z,4.40
2018-12-23T20:19:20.836Z,5.03
2018-12-23T20:22:06.737Z,5.70
2018-12-23T20:24:53.913Z,6.55
2018-12-23T20:27:47.082Z,6.28
2018-12-23T20:30:18.859Z,9.25
2018-12-23T20:33:04.365Z,7.07
2018-12-23T20:35:54.565Z,6.00
2018-12-23T20:38:50.584Z,6.00
2018-12-23T20:41:50.247Z,6.43
2018-12-23T20:44:46.390Z,7.60
2018-12-23T20:47:23.220Z,8.00
2018-12-23T20:50:22.640Z,9.10
2018-12-23T20:52:57.992Z,4.62
2018-12-23T20:55:48.963Z,7.70
2018-12-23T20:58:48.440Z,8.57
2018-12-23T21:01:21.713Z,9.40
2018-12-23T21:04:21.881Z,9.60
2018-12-23T21:07:07.360Z,8.60
2018-12-23T21:09:58.017Z,6.70
2018-12-23T21:12:51.045Z,5.55
2018-12-23T21:15:36.437Z,4.75
2018-12-23T21:18:18.336Z,4.97
2018-12-23T21:21:04.800Z,4.37
2018-12-23T21:23:51.970Z,4.07
2018-12-23T21:26:42.536Z,5.53
2018-12-23T21:29:32.462Z,5.78
2018-12-23T21:32:09.269Z,5.07
2018-12-23T21:34:55.239Z,4.60
2018-12-23T21:37:51.715Z,6.10
2018-12-23T21:40:35.859Z,6.90
2018-12-23T21:43:13.365Z,6.18
2018-12-23T21:45:59.493Z,5.65
2018-12-23T21:48:34.804Z,6.15
2018-12-23T21:51:21.977Z,6.43
2018-12-23T21:54:02.274Z,6.32
2018-12-23T21:57:01.492Z,6.37
2018-12-23T21:59:43.204Z,6.50
2018-12-23T22:02:36.161Z,6.25
2018-12-23T22:05:17.437Z,6.60
2018-12-23T22:08:07.376Z,5.60
2018-12-23T22:10:54.552Z,5.72
2018-12-23T22:13:24.923Z,5.03
2018-12-23T22:15:53.212Z,4.95
2018-12-23T22:18:21.277Z,4.53
2018-12-23T22:20:49.318Z,3.65
2018-12-23T22:23:17.287Z,4.97
2018-12-23T22:25:46.201Z,4.93
2018-12-23T22:28:14.194Z,4.53
2018-12-23T22:30:42.235Z,4.07
2018-12-23T22:33:10.247Z,4.30
2018-12-23T22:35:38.249Z,3.85
2018-12-23T22:38:05.998Z,3.83
2018-12-23T22:40:35.604Z,3.97
2018-12-23T22:43:03.640Z,3.90
2018-12-23T22:45:31.599Z,3.75
2018-12-23T22:47:59.641Z,3.67
2018-12-23T22:50:28.154Z,3.30
2018-12-23T22:52:56.144Z,3.65
2018-12-23T22:55:24.419Z,3.28
2018-12-23T22:57:52.393Z,3.45
2018-12-23T23:00:21.731Z,3.45
2018-12-23T23:02:50.038Z,3.15
2018-12-23T23:05:18.670Z,3.15
2018-12-23T23:07:47.296Z,3.80
2018-12-23T23:10:15.029Z,3.05
2018-12-23T23:12:42.981Z,3.70
2018-12-23T23:15:10.963Z,3.70
2018-12-23T23:17:39.354Z,3.33
2018-12-23T23:20:07.359Z,3.12
2018-12-23T23:22:35.849Z,3.00
2018-12-23T23:25:03.998Z,3.08
2018-12-23T23:27:31.975Z,3.33
2018-12-23T23:29:59.652Z,3.20
2018-12-23T23:32:27.810Z,3.08
2018-12-23T23:34:55.816Z,3.40
2018-12-23T23:37:23.004Z,3.00
2018-12-23T23:39:51.033Z,3.10
2018-12-23T23:42:19.051Z,3.87
2018-12-23T23:44:47.006Z,3.75
2018-12-23T23:47:15.565Z,3.90
2018-12-23T23:49:43.593Z,4.15
2018-12-23T23:52:11.613Z,4.05
2018-12-23T23:54:39.687Z,3.60
2018-12-23T23:57:07.652Z,3.92
2018-12-23T23:59:35.568Z,6.00
